Terminal Aerodrome Forecast
Issued by NWS

Home | Current Version | Previous Version | Text Only | Print | Product List | Glossary On
Versions: 1 2 3 4 5 6 7 8 9 10 11 12 13
000
FTPA31 PHFO 200539
TAFHOG
TAF
PHOG 200539Z 2006/2106 08010KT P6SM VCSH SCT025 BKN045
     FM202000 06017G25KT P6SM FEW025 SCT045 BKN200
     FM210500 06012KT P6SM VCSH FEW025 SCT045
      AMD LTD TO VIS AND WIND 2009/2016=

USA.gov is the U.S. government's official web portal to all federal, state and local government web resources and services.